sensor_id;sensor_type;location;lat;lon;timestamp;P1;durP1;ratioP1;P2;durP2;ratioP2
45863;SDS011;31579;52.354;16.974;2023-04-25T00:02:02;5.10;;;2.20;;
45863;SDS011;31579;52.354;16.974;2023-04-25T00:07:12;5.10;;;2.20;;
45863;SDS011;31579;52.354;16.974;2023-04-25T00:12:11;5.30;;;2.40;;
45863;SDS011;31579;52.354;16.974;2023-04-25T00:17:11;5.30;;;2.40;;
45863;SDS011;31579;52.354;16.974;2023-04-25T00:22:22;6.40;;;2.50;;
45863;SDS011;31579;52.354;16.974;2023-04-25T00:27:20;6.40;;;2.50;;
45863;SDS011;31579;52.354;16.974;2023-04-25T00:32:20;5.10;;;2.30;;
45863;SDS011;31579;52.354;16.974;2023-04-25T00:37:20;5.10;;;2.30;;
45863;SDS011;31579;52.354;16.974;2023-04-25T00:42:20;7.20;;;2.60;;
45863;SDS011;31579;52.354;16.974;2023-04-25T00:47:20;7.20;;;2.60;;
45863;SDS011;31579;52.354;16.974;2023-04-25T00:52:24;5.00;;;3.00;;
45863;SDS011;31579;52.354;16.974;2023-04-25T00:57:20;5.00;;;3.00;;
45863;SDS011;31579;52.354;16.974;2023-04-25T01:02:20;6.60;;;3.80;;
45863;SDS011;31579;52.354;16.974;2023-04-25T01:07:20;6.60;;;3.80;;
45863;SDS011;31579;52.354;16.974;2023-04-25T01:12:20;6.70;;;3.80;;
45863;SDS011;31579;52.354;16.974;2023-04-25T01:17:20;6.70;;;3.80;;
45863;SDS011;31579;52.354;16.974;2023-04-25T01:22:20;6.30;;;3.50;;
45863;SDS011;31579;52.354;16.974;2023-04-25T01:27:20;6.30;;;3.50;;
45863;SDS011;31579;52.354;16.974;2023-04-25T01:32:20;4.60;;;2.70;;
45863;SDS011;31579;52.354;16.974;2023-04-25T01:35:08;4.60;;;2.70;;
45863;SDS011;31579;52.354;16.974;2023-04-25T01:40:14;4.60;;;2.70;;
45863;SDS011;31579;52.354;16.974;2023-04-25T01:45:12;4.10;;;2.20;;
45863;SDS011;31579;52.354;16.974;2023-04-25T01:50:12;4.10;;;2.20;;
45863;SDS011;31579;52.354;16.974;2023-04-25T01:55:12;4.90;;;2.20;;
45863;SDS011;31579;52.354;16.974;2023-04-25T02:00:13;4.90;;;2.20;;
45863;SDS011;31579;52.354;16.974;2023-04-25T02:05:12;6.00;;;2.40;;
45863;SDS011;31579;52.354;16.974;2023-04-25T02:13:13;4.20;;;2.30;;
45863;SDS011;31579;52.354;16.974;2023-04-25T02:18:13;4.20;;;2.30;;
45863;SDS011;31579;52.354;16.974;2023-04-25T02:23:13;5.40;;;2.20;;
45863;SDS011;31579;52.354;16.974;2023-04-25T02:28:13;5.40;;;2.20;;
45863;SDS011;31579;52.354;16.974;2023-04-25T02:33:13;8.50;;;3.90;;
45863;SDS011;31579;52.354;16.974;2023-04-25T02:38:13;8.50;;;3.90;;
45863;SDS011;31579;52.354;16.974;2023-04-25T02:43:13;7.70;;;3.50;;
45863;SDS011;31579;52.354;16.974;2023-04-25T02:52:03;7.00;;;3.50;;
45863;SDS011;31579;52.354;16.974;2023-04-25T02:55:46;7.00;;;3.50;;
45863;SDS011;31579;52.354;16.974;2023-04-25T03:00:44;7.00;;;3.50;;
45863;SDS011;31579;52.354;16.974;2023-04-25T03:05:44;6.60;;;3.80;;
45863;SDS011;31579;52.354;16.974;2023-04-25T03:10:45;6.60;;;3.80;;
45863;SDS011;31579;52.354;16.974;2023-04-25T03:15:44;12.30;;;4.00;;
45863;SDS011;31579;52.354;16.974;2023-04-25T03:20:44;12.30;;;4.00;;
45863;SDS011;31579;52.354;16.974;2023-04-25T03:25:48;6.40;;;3.80;;
45863;SDS011;31579;52.354;16.974;2023-04-25T03:30:44;6.40;;;3.80;;
45863;SDS011;31579;52.354;16.974;2023-04-25T03:35:44;6.80;;;4.00;;
45863;SDS011;31579;52.354;16.974;2023-04-25T03:40:46;6.80;;;4.00;;
45863;SDS011;31579;52.354;16.974;2023-04-25T03:45:44;7.00;;;4.40;;
45863;SDS011;31579;52.354;16.974;2023-04-25T03:50:44;7.00;;;4.40;;
45863;SDS011;31579;52.354;16.974;2023-04-25T03:55:44;8.90;;;4.60;;
45863;SDS011;31579;52.354;16.974;2023-04-25T04:00:44;8.90;;;4.60;;
45863;SDS011;31579;52.354;16.974;2023-04-25T04:05:44;10.10;;;5.10;;
45863;SDS011;31579;52.354;16.974;2023-04-25T04:10:44;10.10;;;5.10;;
45863;SDS011;31579;52.354;16.974;2023-04-25T04:15:44;8.70;;;5.20;;
45863;SDS011;31579;52.354;16.974;2023-04-25T04:20:07;8.70;;;5.20;;
45863;SDS011;31579;52.354;16.974;2023-04-25T04:25:06;9.50;;;5.50;;
45863;SDS011;31579;52.354;16.974;2023-04-25T04:35:15;9.50;;;5.50;;
45863;SDS011;31579;52.354;16.974;2023-04-25T04:40:17;9.50;;;5.50;;
45863;SDS011;31579;52.354;16.974;2023-04-25T04:45:15;9.30;;;5.20;;
45863;SDS011;31579;52.354;16.974;2023-04-25T04:50:15;9.30;;;5.20;;
45863;SDS011;31579;52.354;16.974;2023-04-25T04:55:15;9.10;;;4.90;;
45863;SDS011;31579;52.354;16.974;2023-04-25T05:00:18;9.10;;;4.90;;
45863;SDS011;31579;52.354;16.974;2023-04-25T05:07:20;8.30;;;4.50;;
45863;SDS011;31579;52.354;16.974;2023-04-25T05:17:03;7.00;;;3.90;;
45863;SDS011;31579;52.354;16.974;2023-04-25T05:22:03;7.20;;;4.30;;
45863;SDS011;31579;52.354;16.974;2023-04-25T05:27:03;7.20;;;4.30;;
45863;SDS011;31579;52.354;16.974;2023-04-25T05:32:03;6.50;;;3.50;;
45863;SDS011;31579;52.354;16.974;2023-04-25T05:37:03;6.50;;;3.50;;
45863;SDS011;31579;52.354;16.974;2023-04-25T05:42:07;5.60;;;3.20;;
45863;SDS011;31579;52.354;16.974;2023-04-25T05:47:03;5.60;;;3.20;;
45863;SDS011;31579;52.354;16.974;2023-04-25T05:52:03;7.70;;;3.60;;
45863;SDS011;31579;52.354;16.974;2023-04-25T05:57:05;7.70;;;3.60;;
45863;SDS011;31579;52.354;16.974;2023-04-25T06:02:03;6.70;;;3.50;;
45863;SDS011;31579;52.354;16.974;2023-04-25T06:07:03;6.70;;;3.50;;
45863;SDS011;31579;52.354;16.974;2023-04-25T06:12:02;7.00;;;4.00;;
45863;SDS011;31579;52.354;16.974;2023-04-25T06:17:00;7.00;;;4.00;;
45863;SDS011;31579;52.354;16.974;2023-04-25T06:22:00;8.40;;;4.00;;
45863;SDS011;31579;52.354;16.974;2023-04-25T06:27:00;8.40;;;4.00;;
45863;SDS011;31579;52.354;16.974;2023-04-25T06:32:00;6.30;;;3.70;;
45863;SDS011;31579;52.354;16.974;2023-04-25T06:37:00;6.30;;;3.70;;
45863;SDS011;31579;52.354;16.974;2023-04-25T06:42:02;8.00;;;3.60;;
45863;SDS011;31579;52.354;16.974;2023-04-25T06:47:00;8.00;;;3.60;;
45863;SDS011;31579;52.354;16.974;2023-04-25T06:52:00;10.20;;;3.70;;
45863;SDS011;31579;52.354;16.974;2023-04-25T06:57:00;10.20;;;3.70;;
45863;SDS011;31579;52.354;16.974;2023-04-25T07:02:00;7.40;;;4.00;;
45863;SDS011;31579;52.354;16.974;2023-04-25T07:07:00;7.40;;;4.00;;
45863;SDS011;31579;52.354;16.974;2023-04-25T07:12:00;7.30;;;4.10;;
45863;SDS011;31579;52.354;16.974;2023-04-25T07:13:01;7.30;;;4.10;;
45863;SDS011;31579;52.354;16.974;2023-04-25T07:17:59;7.30;;;4.10;;
45863;SDS011;31579;52.354;16.974;2023-04-25T07:22:59;7.70;;;4.10;;
45863;SDS011;31579;52.354;16.974;2023-04-25T07:27:59;7.70;;;4.10;;
45863;SDS011;31579;52.354;16.974;2023-04-25T07:32:59;9.10;;;4.20;;
45863;SDS011;31579;52.354;16.974;2023-04-25T07:37:59;9.10;;;4.20;;
45863;SDS011;31579;52.354;16.974;2023-04-25T07:43:00;10.20;;;4.20;;
45863;SDS011;31579;52.354;16.974;2023-04-25T07:47:59;10.20;;;4.20;;
45863;SDS011;31579;52.354;16.974;2023-04-25T07:52:59;9.30;;;4.20;;
45863;SDS011;31579;52.354;16.974;2023-04-25T07:57:59;9.30;;;4.20;;
45863;SDS011;31579;52.354;16.974;2023-04-25T08:02:59;9.60;;;3.80;;
45863;SDS011;31579;52.354;16.974;2023-04-25T08:07:59;9.60;;;3.80;;
45863;SDS011;31579;52.354;16.974;2023-04-25T08:12:59;6.90;;;3.90;;
45863;SDS011;31579;52.354;16.974;2023-04-25T08:17:59;6.90;;;3.90;;
45863;SDS011;31579;52.354;16.974;2023-04-25T08:22:59;8.30;;;3.80;;
45863;SDS011;31579;52.354;16.974;2023-04-25T08:27:59;8.30;;;3.80;;
45863;SDS011;31579;52.354;16.974;2023-04-25T08:32:59;8.50;;;4.10;;
45863;SDS011;31579;52.354;16.974;2023-04-25T08:37:59;8.50;;;4.10;;
45863;SDS011;31579;52.354;16.974;2023-04-25T08:42:59;8.00;;;4.20;;
45863;SDS011;31579;52.354;16.974;2023-04-25T08:48:01;8.00;;;4.20;;
45863;SDS011;31579;52.354;16.974;2023-04-25T08:52:16;8.80;;;4.20;;
45863;SDS011;31579;52.354;16.974;2023-04-25T08:57:14;8.80;;;4.20;;
45863;SDS011;31579;52.354;16.974;2023-04-25T09:02:14;7.30;;;4.10;;
45863;SDS011;31579;52.354;16.974;2023-04-25T09:07:14;7.30;;;4.10;;
45863;SDS011;31579;52.354;16.974;2023-04-25T09:12:14;7.70;;;4.00;;
45863;SDS011;31579;52.354;16.974;2023-04-25T09:17:14;7.70;;;4.00;;
45863;SDS011;31579;52.354;16.974;2023-04-25T09:22:16;8.80;;;4.40;;
45863;SDS011;31579;52.354;16.974;2023-04-25T09:32:19;6.60;;;4.10;;
45863;SDS011;31579;52.354;16.974;2023-04-25T09:37:17;6.60;;;4.10;;
45863;SDS011;31579;52.354;16.974;2023-04-25T09:43:20;8.70;;;4.60;;
45863;SDS011;31579;52.354;16.974;2023-04-25T09:48:20;8.70;;;4.60;;
45863;SDS011;31579;52.354;16.974;2023-04-25T09:53:19;8.20;;;4.80;;
45863;SDS011;31579;52.354;16.974;2023-04-25T09:58:19;8.20;;;4.80;;
45863;SDS011;31579;52.354;16.974;2023-04-25T10:03:19;10.40;;;3.80;;
45863;SDS011;31579;52.354;16.974;2023-04-25T10:08:20;10.40;;;3.80;;
45863;SDS011;31579;52.354;16.974;2023-04-25T10:13:19;5.30;;;3.20;;
45863;SDS011;31579;52.354;16.974;2023-04-25T10:18:19;5.30;;;3.20;;
45863;SDS011;31579;52.354;16.974;2023-04-25T10:23:19;5.70;;;3.30;;
45863;SDS011;31579;52.354;16.974;2023-04-25T10:28:19;5.70;;;3.30;;
45863;SDS011;31579;52.354;16.974;2023-04-25T10:33:21;4.90;;;3.20;;
45863;SDS011;31579;52.354;16.974;2023-04-25T10:38:19;4.90;;;3.20;;
45863;SDS011;31579;52.354;16.974;2023-04-25T10:53:19;6.20;;;3.40;;
45863;SDS011;31579;52.354;16.974;2023-04-25T10:58:21;6.20;;;3.40;;
45863;SDS011;31579;52.354;16.974;2023-04-25T11:03:21;6.40;;;3.00;;
45863;SDS011;31579;52.354;16.974;2023-04-25T11:08:21;6.40;;;3.00;;
45863;SDS011;31579;52.354;16.974;2023-04-25T11:13:21;6.00;;;2.50;;
45863;SDS011;31579;52.354;16.974;2023-04-25T11:18:19;6.00;;;2.50;;
45863;SDS011;31579;52.354;16.974;2023-04-25T11:23:19;7.10;;;2.80;;
45863;SDS011;31579;52.354;16.974;2023-04-25T11:28:21;7.10;;;2.80;;
45863;SDS011;31579;52.354;16.974;2023-04-25T11:38:19;5.80;;;2.90;;
45863;SDS011;31579;52.354;16.974;2023-04-25T11:43:20;5.90;;;2.40;;
45863;SDS011;31579;52.354;16.974;2023-04-25T11:48:19;5.90;;;2.40;;
45863;SDS011;31579;52.354;16.974;2023-04-25T11:53:19;4.80;;;2.50;;
45863;SDS011;31579;52.354;16.974;2023-04-25T12:01:04;5.70;;;2.90;;
45863;SDS011;31579;52.354;16.974;2023-04-25T12:06:04;5.70;;;2.90;;
45863;SDS011;31579;52.354;16.974;2023-04-25T12:11:03;9.40;;;3.10;;
45863;SDS011;31579;52.354;16.974;2023-04-25T12:16:04;9.40;;;3.10;;
45863;SDS011;31579;52.354;16.974;2023-04-25T12:21:04;5.40;;;2.70;;
45863;SDS011;31579;52.354;16.974;2023-04-25T12:26:07;5.40;;;2.70;;
45863;SDS011;31579;52.354;16.974;2023-04-25T12:31:04;5.00;;;2.20;;
45863;SDS011;31579;52.354;16.974;2023-04-25T12:36:04;5.00;;;2.20;;
45863;SDS011;31579;52.354;16.974;2023-04-25T12:41:04;4.90;;;2.30;;
45863;SDS011;31579;52.354;16.974;2023-04-25T12:46:04;4.90;;;2.30;;
45863;SDS011;31579;52.354;16.974;2023-04-25T12:51:04;4.30;;;2.10;;
45863;SDS011;31579;52.354;16.974;2023-04-25T12:56:04;4.30;;;2.10;;
45863;SDS011;31579;52.354;16.974;2023-04-25T13:01:04;4.70;;;2.50;;
45863;SDS011;31579;52.354;16.974;2023-04-25T13:06:04;4.70;;;2.50;;
45863;SDS011;31579;52.354;16.974;2023-04-25T13:15:50;5.80;;;2.60;;
45863;SDS011;31579;52.354;16.974;2023-04-25T13:20:50;5.40;;;2.40;;
45863;SDS011;31579;52.354;16.974;2023-04-25T13:25:50;5.40;;;2.40;;
45863;SDS011;31579;52.354;16.974;2023-04-25T13:30:50;3.90;;;1.10;;
45863;SDS011;31579;52.354;16.974;2023-04-25T13:35:50;3.90;;;1.10;;
45863;SDS011;31579;52.354;16.974;2023-04-25T13:40:54;2.20;;;1.00;;
45863;SDS011;31579;52.354;16.974;2023-04-25T13:45:50;2.20;;;1.00;;
45863;SDS011;31579;52.354;16.974;2023-04-25T13:50:50;2.50;;;0.80;;
45863;SDS011;31579;52.354;16.974;2023-04-25T13:55:50;2.50;;;0.80;;
45863;SDS011;31579;52.354;16.974;2023-04-25T14:00:50;2.60;;;1.20;;
45863;SDS011;31579;52.354;16.974;2023-04-25T14:05:50;2.60;;;1.20;;
45863;SDS011;31579;52.354;16.974;2023-04-25T14:10:50;3.60;;;1.60;;
45863;SDS011;31579;52.354;16.974;2023-04-25T14:13:57;3.60;;;1.60;;
45863;SDS011;31579;52.354;16.974;2023-04-25T14:18:55;3.60;;;1.60;;
45863;SDS011;31579;52.354;16.974;2023-04-25T14:23:55;5.60;;;2.90;;
45863;SDS011;31579;52.354;16.974;2023-04-25T14:28:55;5.60;;;2.90;;
45863;SDS011;31579;52.354;16.974;2023-04-25T14:29:09;5.60;;;2.90;;
45863;SDS011;31579;52.354;16.974;2023-04-25T14:34:07;7.70;;;3.50;;
45863;SDS011;31579;52.354;16.974;2023-04-25T14:39:07;7.70;;;3.50;;
45863;SDS011;31579;52.354;16.974;2023-04-25T14:40:02;7.70;;;3.50;;
45863;SDS011;31579;52.354;16.974;2023-04-25T14:45:01;7.70;;;3.50;;
45863;SDS011;31579;52.354;16.974;2023-04-25T14:50:01;7.70;;;3.50;;
45863;SDS011;31579;52.354;16.974;2023-04-25T14:53:04;4.60;;;2.40;;
45863;SDS011;31579;52.354;16.974;2023-04-25T14:58:02;4.60;;;2.40;;
45863;SDS011;31579;52.354;16.974;2023-04-25T15:03:02;4.50;;;2.30;;
45863;SDS011;31579;52.354;16.974;2023-04-25T15:08:02;4.50;;;2.30;;
45863;SDS011;31579;52.354;16.974;2023-04-25T15:13:02;6.40;;;2.20;;
45863;SDS011;31579;52.354;16.974;2023-04-25T15:18:03;6.40;;;2.20;;
45863;SDS011;31579;52.354;16.974;2023-04-25T15:23:02;6.20;;;1.70;;
45863;SDS011;31579;52.354;16.974;2023-04-25T15:28:02;6.20;;;1.70;;
45863;SDS011;31579;52.354;16.974;2023-04-25T15:33:02;7.70;;;2.20;;
45863;SDS011;31579;52.354;16.974;2023-04-25T15:38:04;7.70;;;2.20;;
45863;SDS011;31579;52.354;16.974;2023-04-25T15:43:02;9.80;;;2.40;;
45863;SDS011;31579;52.354;16.974;2023-04-25T15:48:02;9.80;;;2.40;;
45863;SDS011;31579;52.354;16.974;2023-04-25T15:53:02;7.70;;;2.70;;
45863;SDS011;31579;52.354;16.974;2023-04-25T15:58:02;7.70;;;2.70;;
45863;SDS011;31579;52.354;16.974;2023-04-25T16:03:02;9.80;;;3.20;;
45863;SDS011;31579;52.354;16.974;2023-04-25T16:08:02;9.80;;;3.20;;
45863;SDS011;31579;52.354;16.974;2023-04-25T16:10:02;9.80;;;3.20;;
45863;SDS011;31579;52.354;16.974;2023-04-25T16:15:00;9.80;;;3.20;;
45863;SDS011;31579;52.354;16.974;2023-04-25T16:20:00;9.80;;;3.20;;
45863;SDS011;31579;52.354;16.974;2023-04-25T16:25:00;9.00;;;2.80;;
45863;SDS011;31579;52.354;16.974;2023-04-25T16:30:01;9.00;;;2.80;;
45863;SDS011;31579;52.354;16.974;2023-04-25T16:35:00;9.80;;;2.80;;
45863;SDS011;31579;52.354;16.974;2023-04-25T16:40:04;9.80;;;2.80;;
45863;SDS011;31579;52.354;16.974;2023-04-25T16:41:14;14.10;;;3.30;;
45863;SDS011;31579;52.354;16.974;2023-04-25T16:46:13;14.10;;;3.30;;
45863;SDS011;31579;52.354;16.974;2023-04-25T16:51:13;12.70;;;3.50;;
45863;SDS011;31579;52.354;16.974;2023-04-25T16:56:12;12.70;;;3.50;;
45863;SDS011;31579;52.354;16.974;2023-04-25T17:01:12;13.70;;;4.00;;
45863;SDS011;31579;52.354;16.974;2023-04-25T17:06:12;13.70;;;4.00;;
45863;SDS011;31579;52.354;16.974;2023-04-25T17:11:17;9.30;;;2.60;;
45863;SDS011;31579;52.354;16.974;2023-04-25T17:16:12;9.30;;;2.60;;
45863;SDS011;31579;52.354;16.974;2023-04-25T17:21:12;12.40;;;3.70;;
45863;SDS011;31579;52.354;16.974;2023-04-25T17:26:16;12.40;;;3.70;;
45863;SDS011;31579;52.354;16.974;2023-04-25T17:31:12;14.00;;;3.30;;
45863;SDS011;31579;52.354;16.974;2023-04-25T17:36:12;14.00;;;3.30;;
45863;SDS011;31579;52.354;16.974;2023-04-25T17:41:12;12.80;;;3.70;;
45863;SDS011;31579;52.354;16.974;2023-04-25T17:49:19;12.80;;;3.70;;
45863;SDS011;31579;52.354;16.974;2023-04-25T17:54:19;10.50;;;3.00;;
45863;SDS011;31579;52.354;16.974;2023-04-25T18:02:22;12.10;;;4.00;;
45863;SDS011;31579;52.354;16.974;2023-04-25T18:07:22;12.10;;;4.00;;
45863;SDS011;31579;52.354;16.974;2023-04-25T18:12:22;13.50;;;3.70;;
45863;SDS011;31579;52.354;16.974;2023-04-25T18:17:22;13.50;;;3.70;;
45863;SDS011;31579;52.354;16.974;2023-04-25T18:22:22;12.00;;;4.20;;
45863;SDS011;31579;52.354;16.974;2023-04-25T18:31:19;14.90;;;4.30;;
45863;SDS011;31579;52.354;16.974;2023-04-25T18:36:19;14.90;;;4.30;;
45863;SDS011;31579;52.354;16.974;2023-04-25T18:41:20;16.30;;;4.90;;
45863;SDS011;31579;52.354;16.974;2023-04-25T18:46:19;16.30;;;4.90;;
45863;SDS011;31579;52.354;16.974;2023-04-25T18:51:20;12.90;;;4.80;;
45863;SDS011;31579;52.354;16.974;2023-04-25T18:56:23;12.90;;;4.80;;
45863;SDS011;31579;52.354;16.974;2023-04-25T19:01:20;15.70;;;5.30;;
45863;SDS011;31579;52.354;16.974;2023-04-25T19:11:01;14.90;;;6.10;;
45863;SDS011;31579;52.354;16.974;2023-04-25T19:16:01;14.90;;;6.10;;
45863;SDS011;31579;52.354;16.974;2023-04-25T19:21:01;19.00;;;7.40;;
45863;SDS011;31579;52.354;16.974;2023-04-25T19:26:01;19.00;;;7.40;;
45863;SDS011;31579;52.354;16.974;2023-04-25T19:31:01;18.30;;;7.80;;
45863;SDS011;31579;52.354;16.974;2023-04-25T19:36:04;18.30;;;7.80;;
45863;SDS011;31579;52.354;16.974;2023-04-25T19:41:01;14.70;;;6.90;;
45863;SDS011;31579;52.354;16.974;2023-04-25T19:46:01;14.70;;;6.90;;
45863;SDS011;31579;52.354;16.974;2023-04-25T19:51:01;17.90;;;6.60;;
45863;SDS011;31579;52.354;16.974;2023-04-25T19:56:01;17.90;;;6.60;;
45863;SDS011;31579;52.354;16.974;2023-04-25T20:01:01;13.80;;;5.10;;
45863;SDS011;31579;52.354;16.974;2023-04-25T20:06:11;13.80;;;5.10;;
45863;SDS011;31579;52.354;16.974;2023-04-25T20:11:09;11.10;;;3.70;;
45863;SDS011;31579;52.354;16.974;2023-04-25T20:16:09;11.10;;;3.70;;
45863;SDS011;31579;52.354;16.974;2023-04-25T20:21:09;15.50;;;5.00;;
45863;SDS011;31579;52.354;16.974;2023-04-25T20:26:09;15.50;;;5.00;;
45863;SDS011;31579;52.354;16.974;2023-04-25T20:31:09;13.10;;;4.80;;
45863;SDS011;31579;52.354;16.974;2023-04-25T20:36:09;13.10;;;4.80;;
45863;SDS011;31579;52.354;16.974;2023-04-25T20:41:09;20.80;;;7.40;;
45863;SDS011;31579;52.354;16.974;2023-04-25T20:46:09;20.80;;;7.40;;
45863;SDS011;31579;52.354;16.974;2023-04-25T20:51:09;23.40;;;9.00;;
45863;SDS011;31579;52.354;16.974;2023-04-25T20:54:21;23.40;;;9.00;;
45863;SDS011;31579;52.354;16.974;2023-04-25T20:59:19;23.40;;;9.00;;
45863;SDS011;31579;52.354;16.974;2023-04-25T21:04:20;19.50;;;9.00;;
45863;SDS011;31579;52.354;16.974;2023-04-25T21:09:19;19.50;;;9.00;;
45863;SDS011;31579;52.354;16.974;2023-04-25T21:14:19;20.20;;;8.50;;
45863;SDS011;31579;52.354;16.974;2023-04-25T21:19:19;20.20;;;8.50;;
45863;SDS011;31579;52.354;16.974;2023-04-25T21:24:24;21.50;;;7.20;;
45863;SDS011;31579;52.354;16.974;2023-04-25T21:29:19;21.50;;;7.20;;
45863;SDS011;31579;52.354;16.974;2023-04-25T21:36:56;17.60;;;7.20;;
45863;SDS011;31579;52.354;16.974;2023-04-25T21:41:56;16.50;;;6.40;;
45863;SDS011;31579;52.354;16.974;2023-04-25T21:46:56;16.50;;;6.40;;
45863;SDS011;31579;52.354;16.974;2023-04-25T21:51:56;13.60;;;5.10;;
45863;SDS011;31579;52.354;16.974;2023-04-25T21:59:27;13.60;;;5.10;;
45863;SDS011;31579;52.354;16.974;2023-04-25T22:04:27;13.50;;;5.30;;
45863;SDS011;31579;52.354;16.974;2023-04-25T22:09:27;13.50;;;5.30;;
45863;SDS011;31579;52.354;16.974;2023-04-25T22:14:27;15.40;;;5.90;;
45863;SDS011;31579;52.354;16.974;2023-04-25T22:19:27;15.40;;;5.90;;
45863;SDS011;31579;52.354;16.974;2023-04-25T22:24:30;11.60;;;5.50;;
45863;SDS011;31579;52.354;16.974;2023-04-25T22:28:47;11.60;;;5.50;;
45863;SDS011;31579;52.354;16.974;2023-04-25T22:33:45;13.80;;;6.20;;
45863;SDS011;31579;52.354;16.974;2023-04-25T22:38:45;13.80;;;6.20;;
45863;SDS011;31579;52.354;16.974;2023-04-25T22:43:45;14.60;;;5.40;;
45863;SDS011;31579;52.354;16.974;2023-04-25T22:48:46;14.60;;;5.40;;
45863;SDS011;31579;52.354;16.974;2023-04-25T22:53:45;10.80;;;4.30;;
45863;SDS011;31579;52.354;16.974;2023-04-25T22:58:45;10.80;;;4.30;;
45863;SDS011;31579;52.354;16.974;2023-04-25T23:03:45;10.80;;;4.00;;
45863;SDS011;31579;52.354;16.974;2023-04-25T23:13:14;10.30;;;4.10;;
45863;SDS011;31579;52.354;16.974;2023-04-25T23:18:14;10.30;;;4.10;;
45863;SDS011;31579;52.354;16.974;2023-04-25T23:23:14;9.60;;;3.40;;
45863;SDS011;31579;52.354;16.974;2023-04-25T23:28:14;9.60;;;3.40;;
45863;SDS011;31579;52.354;16.974;2023-04-25T23:33:14;13.70;;;4.30;;
45863;SDS011;31579;52.354;16.974;2023-04-25T23:38:14;13.70;;;4.30;;
45863;SDS011;31579;52.354;16.974;2023-04-25T23:43:14;12.40;;;4.00;;
45863;SDS011;31579;52.354;16.974;2023-04-25T23:48:14;12.40;;;4.00;;
45863;SDS011;31579;52.354;16.974;2023-04-25T23:53:16;14.10;;;3.70;;
45863;SDS011;31579;52.354;16.974;2023-04-25T23:58:14;14.10;;;3.70;;
